sensor_id;sensor_type;location;lat;lon;timestamp;P1;durP1;ratioP1;P2;durP2;ratioP2
74469;SDS011;62918;55.706;37.816;2023-08-07T00:00:26;5.88;;;3.47;;
74469;SDS011;62918;55.706;37.816;2023-08-07T00:00:56;6.15;;;3.53;;
74469;SDS011;62918;55.706;37.816;2023-08-07T00:01:27;10.18;;;3.55;;
74469;SDS011;62918;55.706;37.816;2023-08-07T00:01:58;4.60;;;3.55;;
74469;SDS011;62918;55.706;37.816;2023-08-07T00:02:28;5.35;;;3.55;;
74469;SDS011;62918;55.706;37.816;2023-08-07T00:02:58;8.13;;;3.95;;
74469;SDS011;62918;55.706;37.816;2023-08-07T00:03:29;5.47;;;4.03;;
74469;SDS011;62918;55.706;37.816;2023-08-07T00:04:00;7.43;;;3.92;;
74469;SDS011;62918;55.706;37.816;2023-08-07T00:04:30;6.03;;;3.92;;
74469;SDS011;62918;55.706;37.816;2023-08-07T00:05:01;4.68;;;3.30;;
74469;SDS011;62918;55.706;37.816;2023-08-07T00:05:31;6.22;;;3.97;;
74469;SDS011;62918;55.706;37.816;2023-08-07T00:06:02;5.93;;;3.95;;
74469;SDS011;62918;55.706;37.816;2023-08-07T00:06:33;5.68;;;3.67;;
74469;SDS011;62918;55.706;37.816;2023-08-07T00:07:03;5.78;;;3.70;;
74469;SDS011;62918;55.706;37.816;2023-08-07T00:07:34;5.53;;;3.78;;
74469;SDS011;62918;55.706;37.816;2023-08-07T00:08:04;9.27;;;4.07;;
74469;SDS011;62918;55.706;37.816;2023-08-07T00:08:35;5.25;;;4.05;;
74469;SDS011;62918;55.706;37.816;2023-08-07T00:09:08;7.15;;;4.30;;
74469;SDS011;62918;55.706;37.816;2023-08-07T00:09:38;5.10;;;4.03;;
74469;SDS011;62918;55.706;37.816;2023-08-07T00:10:09;4.93;;;3.42;;
74469;SDS011;62918;55.706;37.816;2023-08-07T00:10:40;6.63;;;4.25;;
74469;SDS011;62918;55.706;37.816;2023-08-07T00:11:10;5.97;;;3.33;;
74469;SDS011;62918;55.706;37.816;2023-08-07T00:11:41;7.00;;;4.32;;
74469;SDS011;62918;55.706;37.816;2023-08-07T00:12:11;5.80;;;4.25;;
74469;SDS011;62918;55.706;37.816;2023-08-07T00:12:42;6.18;;;3.50;;
74469;SDS011;62918;55.706;37.816;2023-08-07T00:13:13;6.78;;;3.83;;
74469;SDS011;62918;55.706;37.816;2023-08-07T00:13:44;7.18;;;3.67;;
74469;SDS011;62918;55.706;37.816;2023-08-07T00:14:14;5.60;;;3.83;;
74469;SDS011;62918;55.706;37.816;2023-08-07T00:14:46;5.57;;;3.63;;
74469;SDS011;62918;55.706;37.816;2023-08-07T00:15:17;7.10;;;3.85;;
74469;SDS011;62918;55.706;37.816;2023-08-07T00:15:48;5.05;;;3.47;;
74469;SDS011;62918;55.706;37.816;2023-08-07T00:16:18;4.88;;;3.58;;
74469;SDS011;62918;55.706;37.816;2023-08-07T00:16:49;7.68;;;4.13;;
74469;SDS011;62918;55.706;37.816;2023-08-07T00:17:20;7.93;;;3.75;;
74469;SDS011;62918;55.706;37.816;2023-08-07T00:17:50;6.75;;;3.60;;
74469;SDS011;62918;55.706;37.816;2023-08-07T00:18:21;5.57;;;3.88;;
74469;SDS011;62918;55.706;37.816;2023-08-07T00:18:51;5.78;;;4.00;;
74469;SDS011;62918;55.706;37.816;2023-08-07T00:19:25;4.03;;;3.40;;
74469;SDS011;62918;55.706;37.816;2023-08-07T00:19:56;6.18;;;4.15;;
74469;SDS011;62918;55.706;37.816;2023-08-07T00:20:27;6.43;;;3.92;;
74469;SDS011;62918;55.706;37.816;2023-08-07T00:20:57;5.80;;;3.33;;
74469;SDS011;62918;55.706;37.816;2023-08-07T00:21:28;6.30;;;4.20;;
74469;SDS011;62918;55.706;37.816;2023-08-07T00:21:58;5.72;;;3.70;;
74469;SDS011;62918;55.706;37.816;2023-08-07T00:22:29;7.25;;;3.47;;
74469;SDS011;62918;55.706;37.816;2023-08-07T00:22:59;6.57;;;3.97;;
74469;SDS011;62918;55.706;37.816;2023-08-07T00:23:30;6.15;;;3.65;;
74469;SDS011;62918;55.706;37.816;2023-08-07T00:24:00;7.53;;;4.00;;
74469;SDS011;62918;55.706;37.816;2023-08-07T00:24:31;6.65;;;3.90;;
74469;SDS011;62918;55.706;37.816;2023-08-07T00:25:02;5.60;;;4.32;;
74469;SDS011;62918;55.706;37.816;2023-08-07T00:25:33;4.90;;;3.88;;
74469;SDS011;62918;55.706;37.816;2023-08-07T00:26:03;5.90;;;3.90;;
74469;SDS011;62918;55.706;37.816;2023-08-07T00:26:34;5.80;;;3.40;;
74469;SDS011;62918;55.706;37.816;2023-08-07T00:27:05;7.20;;;3.50;;
74469;SDS011;62918;55.706;37.816;2023-08-07T00:27:36;5.07;;;4.13;;
74469;SDS011;62918;55.706;37.816;2023-08-07T00:28:07;4.47;;;3.47;;
74469;SDS011;62918;55.706;37.816;2023-08-07T00:28:37;6.28;;;3.72;;
74469;SDS011;62918;55.706;37.816;2023-08-07T00:29:08;5.93;;;4.13;;
74469;SDS011;62918;55.706;37.816;2023-08-07T00:29:39;7.00;;;4.30;;
74469;SDS011;62918;55.706;37.816;2023-08-07T00:30:09;4.43;;;3.70;;
74469;SDS011;62918;55.706;37.816;2023-08-07T00:30:40;7.32;;;4.25;;
74469;SDS011;62918;55.706;37.816;2023-08-07T00:31:11;7.82;;;4.13;;
74469;SDS011;62918;55.706;37.816;2023-08-07T00:31:42;4.78;;;4.13;;
74469;SDS011;62918;55.706;37.816;2023-08-07T00:32:13;5.80;;;3.67;;
74469;SDS011;62918;55.706;37.816;2023-08-07T00:32:43;6.00;;;3.63;;
74469;SDS011;62918;55.706;37.816;2023-08-07T00:33:14;7.07;;;3.75;;
74469;SDS011;62918;55.706;37.816;2023-08-07T00:33:44;5.90;;;4.30;;
74469;SDS011;62918;55.706;37.816;2023-08-07T00:34:15;6.78;;;4.13;;
74469;SDS011;62918;55.706;37.816;2023-08-07T00:34:46;6.32;;;3.95;;
74469;SDS011;62918;55.706;37.816;2023-08-07T00:35:17;8.95;;;3.60;;
74469;SDS011;62918;55.706;37.816;2023-08-07T00:35:47;6.60;;;3.92;;
74469;SDS011;62918;55.706;37.816;2023-08-07T00:36:17;7.47;;;4.15;;
74469;SDS011;62918;55.706;37.816;2023-08-07T00:36:49;7.75;;;4.63;;
74469;SDS011;62918;55.706;37.816;2023-08-07T00:37:20;7.15;;;4.07;;
74469;SDS011;62918;55.706;37.816;2023-08-07T00:37:50;7.35;;;4.45;;
74469;SDS011;62918;55.706;37.816;2023-08-07T00:38:21;5.07;;;3.70;;
74469;SDS011;62918;55.706;37.816;2023-08-07T00:38:51;5.63;;;4.43;;
74469;SDS011;62918;55.706;37.816;2023-08-07T00:39:22;6.63;;;3.67;;
74469;SDS011;62918;55.706;37.816;2023-08-07T00:39:52;5.60;;;3.25;;
74469;SDS011;62918;55.706;37.816;2023-08-07T00:40:23;8.30;;;4.20;;
74469;SDS011;62918;55.706;37.816;2023-08-07T00:40:53;7.63;;;4.43;;
74469;SDS011;62918;55.706;37.816;2023-08-07T00:41:24;4.85;;;4.28;;
74469;SDS011;62918;55.706;37.816;2023-08-07T00:41:54;5.97;;;3.80;;
74469;SDS011;62918;55.706;37.816;2023-08-07T00:42:25;6.47;;;3.55;;
74469;SDS011;62918;55.706;37.816;2023-08-07T00:42:55;6.78;;;3.80;;
74469;SDS011;62918;55.706;37.816;2023-08-07T00:43:26;7.78;;;4.30;;
74469;SDS011;62918;55.706;37.816;2023-08-07T00:43:56;4.35;;;3.50;;
74469;SDS011;62918;55.706;37.816;2023-08-07T00:44:27;6.05;;;3.83;;
74469;SDS011;62918;55.706;37.816;2023-08-07T00:44:58;6.07;;;3.65;;
74469;SDS011;62918;55.706;37.816;2023-08-07T00:45:28;6.80;;;4.43;;
74469;SDS011;62918;55.706;37.816;2023-08-07T00:45:59;5.85;;;3.97;;
74469;SDS011;62918;55.706;37.816;2023-08-07T00:46:29;7.10;;;3.72;;
74469;SDS011;62918;55.706;37.816;2023-08-07T00:47:00;7.43;;;4.15;;
74469;SDS011;62918;55.706;37.816;2023-08-07T00:47:31;5.95;;;3.83;;
74469;SDS011;62918;55.706;37.816;2023-08-07T00:48:02;5.88;;;4.47;;
74469;SDS011;62918;55.706;37.816;2023-08-07T00:48:33;5.55;;;3.95;;
74469;SDS011;62918;55.706;37.816;2023-08-07T00:49:03;5.15;;;4.10;;
74469;SDS011;62918;55.706;37.816;2023-08-07T00:49:34;8.38;;;4.18;;
74469;SDS011;62918;55.706;37.816;2023-08-07T00:50:06;8.73;;;4.15;;
74469;SDS011;62918;55.706;37.816;2023-08-07T00:50:38;7.85;;;4.25;;
74469;SDS011;62918;55.706;37.816;2023-08-07T00:51:10;6.82;;;4.38;;
74469;SDS011;62918;55.706;37.816;2023-08-07T00:51:41;7.25;;;4.65;;
74469;SDS011;62918;55.706;37.816;2023-08-07T00:52:12;6.68;;;4.20;;
74469;SDS011;62918;55.706;37.816;2023-08-07T00:52:42;5.90;;;4.15;;
74469;SDS011;62918;55.706;37.816;2023-08-07T00:53:13;8.75;;;4.10;;
74469;SDS011;62918;55.706;37.816;2023-08-07T00:53:44;6.05;;;4.05;;
74469;SDS011;62918;55.706;37.816;2023-08-07T00:54:15;5.72;;;4.47;;
74469;SDS011;62918;55.706;37.816;2023-08-07T00:54:49;5.18;;;4.00;;
74469;SDS011;62918;55.706;37.816;2023-08-07T00:55:20;6.07;;;4.13;;
74469;SDS011;62918;55.706;37.816;2023-08-07T00:55:50;8.30;;;4.43;;
74469;SDS011;62918;55.706;37.816;2023-08-07T00:56:21;6.60;;;4.53;;
74469;SDS011;62918;55.706;37.816;2023-08-07T00:56:53;7.40;;;4.50;;
74469;SDS011;62918;55.706;37.816;2023-08-07T00:57:24;6.80;;;5.32;;
74469;SDS011;62918;55.706;37.816;2023-08-07T00:57:56;5.40;;;3.95;;
74469;SDS011;62918;55.706;37.816;2023-08-07T00:58:28;7.00;;;4.57;;
74469;SDS011;62918;55.706;37.816;2023-08-07T00:58:58;11.63;;;5.18;;
74469;SDS011;62918;55.706;37.816;2023-08-07T00:59:30;6.50;;;4.25;;
74469;SDS011;62918;55.706;37.816;2023-08-07T01:00:01;5.53;;;4.05;;
74469;SDS011;62918;55.706;37.816;2023-08-07T01:00:32;7.75;;;4.40;;
74469;SDS011;62918;55.706;37.816;2023-08-07T01:01:03;8.10;;;4.70;;
74469;SDS011;62918;55.706;37.816;2023-08-07T01:01:35;8.73;;;4.50;;
74469;SDS011;62918;55.706;37.816;2023-08-07T01:02:06;6.50;;;4.45;;
74469;SDS011;62918;55.706;37.816;2023-08-07T01:02:38;6.55;;;4.30;;
74469;SDS011;62918;55.706;37.816;2023-08-07T01:03:09;6.95;;;4.30;;
74469;SDS011;62918;55.706;37.816;2023-08-07T01:03:42;6.47;;;4.18;;
74469;SDS011;62918;55.706;37.816;2023-08-07T01:04:13;5.75;;;4.47;;
74469;SDS011;62918;55.706;37.816;2023-08-07T01:04:43;7.45;;;4.38;;
74469;SDS011;62918;55.706;37.816;2023-08-07T01:05:14;8.23;;;4.70;;
74469;SDS011;62918;55.706;37.816;2023-08-07T01:05:45;8.88;;;4.80;;
74469;SDS011;62918;55.706;37.816;2023-08-07T01:06:16;4.90;;;4.13;;
74469;SDS011;62918;55.706;37.816;2023-08-07T01:06:47;4.93;;;3.83;;
74469;SDS011;62918;55.706;37.816;2023-08-07T01:07:17;5.88;;;4.40;;
74469;SDS011;62918;55.706;37.816;2023-08-07T01:07:48;7.18;;;5.05;;
74469;SDS011;62918;55.706;37.816;2023-08-07T01:08:22;7.38;;;4.07;;
74469;SDS011;62918;55.706;37.816;2023-08-07T01:08:53;8.07;;;4.50;;
74469;SDS011;62918;55.706;37.816;2023-08-07T01:09:24;6.10;;;4.40;;
74469;SDS011;62918;55.706;37.816;2023-08-07T01:09:55;5.15;;;4.30;;
74469;SDS011;62918;55.706;37.816;2023-08-07T01:12:13;7.68;;;4.60;;
74469;SDS011;62918;55.706;37.816;2023-08-07T01:12:48;8.68;;;4.63;;
74469;SDS011;62918;55.706;37.816;2023-08-07T01:13:32;6.82;;;4.65;;
74469;SDS011;62918;55.706;37.816;2023-08-07T01:14:13;8.90;;;4.50;;
74469;SDS011;62918;55.706;37.816;2023-08-07T01:15:29;7.53;;;4.80;;
74469;SDS011;62918;55.706;37.816;2023-08-07T01:16:03;9.45;;;4.20;;
74469;SDS011;62918;55.706;37.816;2023-08-07T01:17:14;5.95;;;4.15;;
74469;SDS011;62918;55.706;37.816;2023-08-07T01:17:40;6.35;;;4.45;;
74469;SDS011;62918;55.706;37.816;2023-08-07T01:18:13;7.30;;;4.75;;
74469;SDS011;62918;55.706;37.816;2023-08-07T01:18:45;8.75;;;4.30;;
74469;SDS011;62918;55.706;37.816;2023-08-07T01:19:26;6.13;;;4.13;;
74469;SDS011;62918;55.706;37.816;2023-08-07T01:19:58;6.38;;;4.75;;
74469;SDS011;62918;55.706;37.816;2023-08-07T01:20:29;9.20;;;4.57;;
74469;SDS011;62918;55.706;37.816;2023-08-07T01:20:59;6.57;;;4.78;;
74469;SDS011;62918;55.706;37.816;2023-08-07T01:21:32;7.82;;;4.53;;
74469;SDS011;62918;55.706;37.816;2023-08-07T01:22:12;5.78;;;4.40;;
74469;SDS011;62918;55.706;37.816;2023-08-07T01:22:47;7.60;;;5.22;;
74469;SDS011;62918;55.706;37.816;2023-08-07T01:23:17;8.52;;;4.65;;
74469;SDS011;62918;55.706;37.816;2023-08-07T01:23:48;5.80;;;4.80;;
74469;SDS011;62918;55.706;37.816;2023-08-07T01:24:19;8.25;;;4.90;;
74469;SDS011;62918;55.706;37.816;2023-08-07T01:24:50;6.80;;;5.18;;
74469;SDS011;62918;55.706;37.816;2023-08-07T01:25:20;7.65;;;4.80;;
74469;SDS011;62918;55.706;37.816;2023-08-07T01:25:51;6.90;;;4.75;;
74469;SDS011;62918;55.706;37.816;2023-08-07T01:26:22;7.63;;;5.07;;
74469;SDS011;62918;55.706;37.816;2023-08-07T01:26:53;5.72;;;4.70;;
74469;SDS011;62918;55.706;37.816;2023-08-07T01:27:30;8.55;;;4.50;;
74469;SDS011;62918;55.706;37.816;2023-08-07T01:28:06;8.15;;;4.93;;
74469;SDS011;62918;55.706;37.816;2023-08-07T01:29:23;5.95;;;4.55;;
74469;SDS011;62918;55.706;37.816;2023-08-07T01:29:54;6.85;;;4.60;;
74469;SDS011;62918;55.706;37.816;2023-08-07T01:30:41;6.00;;;4.95;;
74469;SDS011;62918;55.706;37.816;2023-08-07T01:31:16;7.78;;;4.93;;
74469;SDS011;62918;55.706;37.816;2023-08-07T01:31:52;6.57;;;4.85;;
74469;SDS011;62918;55.706;37.816;2023-08-07T01:32:29;9.30;;;5.07;;
74469;SDS011;62918;55.706;37.816;2023-08-07T01:33:15;6.60;;;5.10;;
74469;SDS011;62918;55.706;37.816;2023-08-07T01:33:51;5.63;;;4.45;;
74469;SDS011;62918;55.706;37.816;2023-08-07T01:34:28;8.30;;;5.18;;
74469;SDS011;62918;55.706;37.816;2023-08-07T01:34:58;8.45;;;5.32;;
74469;SDS011;62918;55.706;37.816;2023-08-07T01:35:36;9.05;;;5.22;;
74469;SDS011;62918;55.706;37.816;2023-08-07T01:36:11;8.27;;;5.28;;
74469;SDS011;62918;55.706;37.816;2023-08-07T01:36:42;6.70;;;5.07;;
74469;SDS011;62918;55.706;37.816;2023-08-07T01:37:15;6.55;;;4.68;;
74469;SDS011;62918;55.706;37.816;2023-08-07T01:38:18;7.45;;;4.78;;
74469;SDS011;62918;55.706;37.816;2023-08-07T01:38:55;6.93;;;4.70;;
74469;SDS011;62918;55.706;37.816;2023-08-07T01:39:27;7.63;;;5.32;;
74469;SDS011;62918;55.706;37.816;2023-08-07T01:39:59;7.38;;;4.63;;
74469;SDS011;62918;55.706;37.816;2023-08-07T01:40:34;8.30;;;5.25;;
74469;SDS011;62918;55.706;37.816;2023-08-07T01:41:07;7.03;;;5.28;;
74469;SDS011;62918;55.706;37.816;2023-08-07T01:41:40;5.63;;;4.93;;
74469;SDS011;62918;55.706;37.816;2023-08-07T01:42:11;7.40;;;4.90;;
74469;SDS011;62918;55.706;37.816;2023-08-07T01:42:42;7.65;;;5.43;;
74469;SDS011;62918;55.706;37.816;2023-08-07T01:43:14;5.93;;;5.10;;
74469;SDS011;62918;55.706;37.816;2023-08-07T01:43:45;6.25;;;4.63;;
74469;SDS011;62918;55.706;37.816;2023-08-07T01:44:15;10.90;;;4.68;;
74469;SDS011;62918;55.706;37.816;2023-08-07T01:44:46;13.10;;;4.80;;
74469;SDS011;62918;55.706;37.816;2023-08-07T01:45:26;8.90;;;4.90;;
74469;SDS011;62918;55.706;37.816;2023-08-07T01:45:58;7.35;;;5.00;;
74469;SDS011;62918;55.706;37.816;2023-08-07T01:46:29;6.43;;;4.93;;
74469;SDS011;62918;55.706;37.816;2023-08-07T01:47:00;6.05;;;4.78;;
74469;SDS011;62918;55.706;37.816;2023-08-07T01:47:31;8.50;;;5.13;;
74469;SDS011;62918;55.706;37.816;2023-08-07T01:48:02;6.75;;;5.32;;
74469;SDS011;62918;55.706;37.816;2023-08-07T01:48:32;8.52;;;4.95;;
74469;SDS011;62918;55.706;37.816;2023-08-07T01:49:03;7.53;;;4.78;;
74469;SDS011;62918;55.706;37.816;2023-08-07T01:49:37;7.38;;;5.10;;
74469;SDS011;62918;55.706;37.816;2023-08-07T01:50:08;7.03;;;4.68;;
74469;SDS011;62918;55.706;37.816;2023-08-07T01:50:39;6.80;;;5.28;;
74469;SDS011;62918;55.706;37.816;2023-08-07T01:51:11;6.28;;;4.57;;
74469;SDS011;62918;55.706;37.816;2023-08-07T01:51:41;8.02;;;4.97;;
74469;SDS011;62918;55.706;37.816;2023-08-07T01:52:12;6.40;;;5.38;;
74469;SDS011;62918;55.706;37.816;2023-08-07T01:52:45;8.93;;;5.05;;
74469;SDS011;62918;55.706;37.816;2023-08-07T01:53:19;8.93;;;4.38;;
74469;SDS011;62918;55.706;37.816;2023-08-07T01:53:50;9.15;;;4.65;;
74469;SDS011;62918;55.706;37.816;2023-08-07T01:54:20;7.43;;;4.65;;
74469;SDS011;62918;55.706;37.816;2023-08-07T01:54:51;7.38;;;4.65;;
74469;SDS011;62918;55.706;37.816;2023-08-07T01:55:22;6.90;;;4.75;;
74469;SDS011;62918;55.706;37.816;2023-08-07T01:55:53;8.07;;;5.57;;
74469;SDS011;62918;55.706;37.816;2023-08-07T01:56:23;8.55;;;4.78;;
74469;SDS011;62918;55.706;37.816;2023-08-07T01:56:54;8.02;;;5.13;;
74469;SDS011;62918;55.706;37.816;2023-08-07T01:57:24;7.18;;;4.47;;
74469;SDS011;62918;55.706;37.816;2023-08-07T01:57:55;7.50;;;5.55;;
74469;SDS011;62918;55.706;37.816;2023-08-07T01:58:26;5.75;;;4.80;;
74469;SDS011;62918;55.706;37.816;2023-08-07T01:58:56;6.28;;;4.90;;
74469;SDS011;62918;55.706;37.816;2023-08-07T01:59:27;7.60;;;5.10;;
74469;SDS011;62918;55.706;37.816;2023-08-07T01:59:58;5.40;;;4.65;;
74469;SDS011;62918;55.706;37.816;2023-08-07T02:00:28;11.73;;;5.07;;
74469;SDS011;62918;55.706;37.816;2023-08-07T02:00:59;7.78;;;4.72;;
74469;SDS011;62918;55.706;37.816;2023-08-07T02:01:29;8.27;;;4.95;;
74469;SDS011;62918;55.706;37.816;2023-08-07T02:02:00;9.77;;;5.28;;
74469;SDS011;62918;55.706;37.816;2023-08-07T02:02:30;7.57;;;4.90;;
74469;SDS011;62918;55.706;37.816;2023-08-07T02:03:01;8.02;;;4.38;;
74469;SDS011;62918;55.706;37.816;2023-08-07T02:03:31;10.77;;;5.18;;
74469;SDS011;62918;55.706;37.816;2023-08-07T02:04:02;6.88;;;4.93;;
74469;SDS011;62918;55.706;37.816;2023-08-07T02:04:32;9.60;;;4.90;;
74469;SDS011;62918;55.706;37.816;2023-08-07T02:05:03;6.72;;;4.65;;
74469;SDS011;62918;55.706;37.816;2023-08-07T02:05:34;9.95;;;5.72;;
74469;SDS011;62918;55.706;37.816;2023-08-07T02:06:05;7.28;;;5.35;;
74469;SDS011;62918;55.706;37.816;2023-08-07T02:06:35;7.13;;;4.70;;
74469;SDS011;62918;55.706;37.816;2023-08-07T02:07:06;8.55;;;5.25;;
74469;SDS011;62918;55.706;37.816;2023-08-07T02:07:36;7.25;;;4.60;;
74469;SDS011;62918;55.706;37.816;2023-08-07T02:08:07;9.13;;;5.10;;
74469;SDS011;62918;55.706;37.816;2023-08-07T02:08:38;7.55;;;4.97;;
74469;SDS011;62918;55.706;37.816;2023-08-07T02:09:08;6.40;;;5.10;;
74469;SDS011;62918;55.706;37.816;2023-08-07T02:09:39;8.88;;;4.38;;
74469;SDS011;62918;55.706;37.816;2023-08-07T02:10:12;8.25;;;4.53;;
74469;SDS011;62918;55.706;37.816;2023-08-07T02:10:42;6.47;;;4.43;;
74469;SDS011;62918;55.706;37.816;2023-08-07T02:11:13;11.15;;;4.75;;
74469;SDS011;62918;55.706;37.816;2023-08-07T02:11:43;10.68;;;4.85;;
74469;SDS011;62918;55.706;37.816;2023-08-07T02:12:15;8.50;;;4.95;;
74469;SDS011;62918;55.706;37.816;2023-08-07T02:12:45;6.60;;;4.22;;
74469;SDS011;62918;55.706;37.816;2023-08-07T02:13:16;6.07;;;4.53;;
74469;SDS011;62918;55.706;37.816;2023-08-07T02:13:46;8.07;;;4.70;;
74469;SDS011;62918;55.706;37.816;2023-08-07T02:14:17;7.72;;;4.95;;
74469;SDS011;62918;55.706;37.816;2023-08-07T02:14:48;8.05;;;5.20;;
74469;SDS011;62918;55.706;37.816;2023-08-07T02:15:18;8.27;;;4.35;;
74469;SDS011;62918;55.706;37.816;2023-08-07T02:15:49;8.23;;;4.88;;
74469;SDS011;62918;55.706;37.816;2023-08-07T02:16:20;5.95;;;4.72;;
74469;SDS011;62918;55.706;37.816;2023-08-07T02:16:51;5.82;;;4.40;;
74469;SDS011;62918;55.706;37.816;2023-08-07T02:17:21;8.05;;;4.75;;
74469;SDS011;62918;55.706;37.816;2023-08-07T02:17:52;5.95;;;4.32;;
74469;SDS011;62918;55.706;37.816;2023-08-07T02:18:23;7.70;;;4.05;;
74469;SDS011;62918;55.706;37.816;2023-08-07T02:18:54;5.97;;;4.43;;
74469;SDS011;62918;55.706;37.816;2023-08-07T02:19:24;7.93;;;4.78;;
74469;SDS011;62918;55.706;37.816;2023-08-07T02:19:55;4.82;;;4.05;;
74469;SDS011;62918;55.706;37.816;2023-08-07T02:20:26;7.28;;;4.45;;
74469;SDS011;62918;55.706;37.816;2023-08-07T02:20:56;6.47;;;4.30;;
74469;SDS011;62918;55.706;37.816;2023-08-07T02:21:27;6.60;;;4.50;;
74469;SDS011;62918;55.706;37.816;2023-08-07T02:21:57;7.40;;;4.60;;
74469;SDS011;62918;55.706;37.816;2023-08-07T02:22:28;5.20;;;3.65;;
74469;SDS011;62918;55.706;37.816;2023-08-07T02:22:58;6.85;;;4.20;;
74469;SDS011;62918;55.706;37.816;2023-08-07T02:23:29;7.43;;;4.13;;
74469;SDS011;62918;55.706;37.816;2023-08-07T02:23:59;7.20;;;4.47;;
74469;SDS011;62918;55.706;37.816;2023-08-07T02:24:30;7.03;;;5.03;;
74469;SDS011;62918;55.706;37.816;2023-08-07T02:25:01;7.00;;;5.13;;
74469;SDS011;62918;55.706;37.816;2023-08-07T02:25:31;7.57;;;5.43;;
74469;SDS011;62918;55.706;37.816;2023-08-07T02:26:02;10.40;;;5.60;;
74469;SDS011;62918;55.706;37.816;2023-08-07T02:26:32;5.45;;;4.25;;
74469;SDS011;62918;55.706;37.816;2023-08-07T02:27:03;10.25;;;5.18;;
74469;SDS011;62918;55.706;37.816;2023-08-07T02:27:33;7.05;;;5.10;;
74469;SDS011;62918;55.706;37.816;2023-08-07T02:28:04;5.47;;;4.90;;
74469;SDS011;62918;55.706;37.816;2023-08-07T02:28:35;6.72;;;4.88;;
74469;SDS011;62918;55.706;37.816;2023-08-07T02:29:05;8.25;;;4.97;;
74469;SDS011;62918;55.706;37.816;2023-08-07T02:29:37;9.13;;;4.35;;
74469;SDS011;62918;55.706;37.816;2023-08-07T02:30:10;8.40;;;4.95;;
74469;SDS011;62918;55.706;37.816;2023-08-07T02:30:42;6.57;;;4.18;;
74469;SDS011;62918;55.706;37.816;2023-08-07T02:31:17;9.10;;;4.68;;
74469;SDS011;62918;55.706;37.816;2023-08-07T02:31:47;7.00;;;4.75;;
74469;SDS011;62918;55.706;37.816;2023-08-07T02:32:18;5.75;;;5.05;;
74469;SDS011;62918;55.706;37.816;2023-08-07T02:32:51;7.63;;;5.00;;
74469;SDS011;62918;55.706;37.816;2023-08-07T02:33:22;4.75;;;4.25;;
74469;SDS011;62918;55.706;37.816;2023-08-07T02:33:52;6.15;;;4.63;;
74469;SDS011;62918;55.706;37.816;2023-08-07T02:34:23;6.90;;;3.95;;
74469;SDS011;62918;55.706;37.816;2023-08-07T02:34:53;5.32;;;4.35;;
74469;SDS011;62918;55.706;37.816;2023-08-07T02:35:24;7.25;;;4.72;;
74469;SDS011;62918;55.706;37.816;2023-08-07T02:35:54;5.38;;;4.30;;
74469;SDS011;62918;55.706;37.816;2023-08-07T02:36:25;8.20;;;4.82;;
74469;SDS011;62918;55.706;37.816;2023-08-07T02:36:55;9.07;;;5.25;;
74469;SDS011;62918;55.706;37.816;2023-08-07T02:37:26;10.40;;;4.88;;
74469;SDS011;62918;55.706;37.816;2023-08-07T02:37:57;6.82;;;4.75;;
74469;SDS011;62918;55.706;37.816;2023-08-07T02:38:27;6.47;;;4.63;;
74469;SDS011;62918;55.706;37.816;2023-08-07T02:38:58;6.20;;;4.32;;
74469;SDS011;62918;55.706;37.816;2023-08-07T02:39:28;6.53;;;4.53;;
74469;SDS011;62918;55.706;37.816;2023-08-07T02:39:59;7.13;;;5.93;;
74469;SDS011;62918;55.706;37.816;2023-08-07T02:40:29;6.18;;;4.60;;
74469;SDS011;62918;55.706;37.816;2023-08-07T02:41:02;5.85;;;4.70;;
74469;SDS011;62918;55.706;37.816;2023-08-07T02:41:33;6.53;;;4.63;;
74469;SDS011;62918;55.706;37.816;2023-08-07T02:42:03;7.38;;;4.38;;
74469;SDS011;62918;55.706;37.816;2023-08-07T02:42:34;5.97;;;4.40;;
74469;SDS011;62918;55.706;37.816;2023-08-07T02:43:05;6.15;;;3.92;;
74469;SDS011;62918;55.706;37.816;2023-08-07T02:43:35;6.63;;;4.63;;
74469;SDS011;62918;55.706;37.816;2023-08-07T02:44:06;6.88;;;5.20;;
74469;SDS011;62918;55.706;37.816;2023-08-07T02:44:36;6.00;;;4.72;;
74469;SDS011;62918;55.706;37.816;2023-08-07T02:45:07;5.55;;;4.65;;
74469;SDS011;62918;55.706;37.816;2023-08-07T02:45:38;6.32;;;4.60;;
74469;SDS011;62918;55.706;37.816;2023-08-07T02:46:08;9.25;;;5.22;;
74469;SDS011;62918;55.706;37.816;2023-08-07T02:46:39;8.88;;;4.75;;
74469;SDS011;62918;55.706;37.816;2023-08-07T02:47:11;8.95;;;5.32;;
74469;SDS011;62918;55.706;37.816;2023-08-07T02:47:42;6.60;;;4.75;;
74469;SDS011;62918;55.706;37.816;2023-08-07T02:48:12;6.72;;;5.10;;
74469;SDS011;62918;55.706;37.816;2023-08-07T02:48:43;11.10;;;4.28;;
74469;SDS011;62918;55.706;37.816;2023-08-07T02:49:14;7.38;;;4.75;;
74469;SDS011;62918;55.706;37.816;2023-08-07T02:49:44;5.68;;;4.95;;
74469;SDS011;62918;55.706;37.816;2023-08-07T02:50:15;5.40;;;4.43;;
74469;SDS011;62918;55.706;37.816;2023-08-07T02:50:45;5.80;;;4.40;;
74469;SDS011;62918;55.706;37.816;2023-08-07T02:51:16;6.70;;;4.45;;
74469;SDS011;62918;55.706;37.816;2023-08-07T02:51:46;9.95;;;5.35;;
74469;SDS011;62918;55.706;37.816;2023-08-07T02:52:17;5.95;;;4.38;;
74469;SDS011;62918;55.706;37.816;2023-08-07T02:52:48;8.05;;;4.53;;
74469;SDS011;62918;55.706;37.816;2023-08-07T02:53:18;7.78;;;4.53;;
74469;SDS011;62918;55.706;37.816;2023-08-07T02:53:49;6.97;;;4.82;;
74469;SDS011;62918;55.706;37.816;2023-08-07T02:54:19;8.30;;;4.20;;
74469;SDS011;62918;55.706;37.816;2023-08-07T02:54:50;4.90;;;4.38;;
74469;SDS011;62918;55.706;37.816;2023-08-07T02:55:20;5.97;;;4.88;;
74469;SDS011;62918;55.706;37.816;2023-08-07T02:55:51;6.68;;;4.68;;
74469;SDS011;62918;55.706;37.816;2023-08-07T02:56:21;7.45;;;4.55;;
74469;SDS011;62918;55.706;37.816;2023-08-07T02:56:52;6.35;;;4.50;;
74469;SDS011;62918;55.706;37.816;2023-08-07T02:57:22;6.20;;;4.70;;
74469;SDS011;62918;55.706;37.816;2023-08-07T02:57:53;6.22;;;4.32;;
74469;SDS011;62918;55.706;37.816;2023-08-07T02:58:23;5.57;;;4.47;;
74469;SDS011;62918;55.706;37.816;2023-08-07T02:58:54;6.00;;;4.80;;
74469;SDS011;62918;55.706;37.816;2023-08-07T02:59:24;7.78;;;5.00;;
74469;SDS011;62918;55.706;37.816;2023-08-07T02:59:55;7.13;;;4.60;;
74469;SDS011;62918;55.706;37.816;2023-08-07T03:00:25;9.27;;;5.32;;
74469;SDS011;62918;55.706;37.816;2023-08-07T03:00:56;7.50;;;4.18;;
74469;SDS011;62918;55.706;37.816;2023-08-07T03:01:27;7.63;;;4.57;;
74469;SDS011;62918;55.706;37.816;2023-08-07T03:01:57;6.70;;;4.22;;
74469;SDS011;62918;55.706;37.816;2023-08-07T03:02:28;6.90;;;4.25;;
74469;SDS011;62918;55.706;37.816;2023-08-07T03:02:58;5.95;;;4.70;;
74469;SDS011;62918;55.706;37.816;2023-08-07T03:03:29;6.68;;;4.72;;
74469;SDS011;62918;55.706;37.816;2023-08-07T03:04:00;5.55;;;4.40;;
74469;SDS011;62918;55.706;37.816;2023-08-07T03:04:30;5.10;;;4.65;;
74469;SDS011;62918;55.706;37.816;2023-08-07T03:05:01;6.55;;;4.43;;
74469;SDS011;62918;55.706;37.816;2023-08-07T03:05:33;7.28;;;4.93;;
74469;SDS011;62918;55.706;37.816;2023-08-07T03:06:04;6.07;;;4.55;;
74469;SDS011;62918;55.706;37.816;2023-08-07T03:06:34;4.63;;;4.13;;
74469;SDS011;62918;55.706;37.816;2023-08-07T03:07:05;6.75;;;4.97;;
74469;SDS011;62918;55.706;37.816;2023-08-07T03:07:36;8.45;;;5.07;;
74469;SDS011;62918;55.706;37.816;2023-08-07T03:08:06;8.98;;;4.53;;
74469;SDS011;62918;55.706;37.816;2023-08-07T03:08:37;5.07;;;4.40;;
74469;SDS011;62918;55.706;37.816;2023-08-07T03:09:07;5.25;;;4.47;;
74469;SDS011;62918;55.706;37.816;2023-08-07T03:09:38;5.30;;;3.75;;
74469;SDS011;62918;55.706;37.816;2023-08-07T03:10:08;6.45;;;4.18;;